Time;durP1;ratioP1;P1;durP2;ratioP2;P2;SDS_P1;SDS_P2;PMS_P1;PMS_P2;Temp;Humidity;BMP_temperature;BMP_pressure;BME280_temperature;BME280_humidity;BME280_pressure;Samples;Min_cycle;Max_cycle;Signal;HPM_P1;HPM_P2
2023/10/18 00:02:57;;;;;;;17.93;14.73;;;8.00;99.90;;;;;;6272880;22;20081;-81
2023/10/18 00:05:25;;;;;;;17.60;14.90;;;8.00;99.90;;;;;;6271706;22;20027;-81
2023/10/18 00:07:57;;;;;;;16.87;14.90;;;8.00;99.90;;;;;;6274435;22;20031;-82
2023/10/18 00:10:23;;;;;;;18.07;14.53;;;8.00;99.90;;;;;;6248516;22;20004;-83
2023/10/18 00:12:52;;;;;;;20.30;15.63;;;8.00;99.90;;;;;;6244511;22;20000;-83
2023/10/18 00:15:17;;;;;;;17.87;15.87;;;8.00;99.90;;;;;;6275257;22;19999;-88
2023/10/18 00:17:44;;;;;;;16.57;14.00;;;8.00;99.90;;;;;;6248413;22;20008;-89
2023/10/18 00:20:16;;;;;;;19.37;16.07;;;8.00;99.90;;;;;;6250766;22;20148;-86
2023/10/18 00:22:44;;;;;;;15.43;12.60;;;7.90;99.90;;;;;;6273894;22;20039;-82
2023/10/18 00:25:11;;;;;;;21.90;15.03;;;7.90;99.90;;;;;;6274470;22;20000;-87
2023/10/18 00:27:38;;;;;;;17.50;13.97;;;7.90;99.90;;;;;;6246603;22;20011;-85
2023/10/18 00:30:07;;;;;;;18.73;15.50;;;7.90;99.90;;;;;;6273398;22;20486;-91
2023/10/18 00:32:34;;;;;;;19.87;16.17;;;7.90;99.90;;;;;;6275265;22;20306;-89
2023/10/18 00:34:59;;;;;;;17.97;14.97;;;7.90;99.90;;;;;;6274217;22;20006;-84
2023/10/18 00:37:25;;;;;;;17.90;14.87;;;7.90;99.90;;;;;;6246881;22;20008;-83
2023/10/18 00:39:51;;;;;;;17.37;15.47;;;7.90;99.90;;;;;;6247440;22;20004;-90
2023/10/18 00:42:27;;;;;;;15.83;14.13;;;7.90;99.90;;;;;;6274253;22;20035;-86
2023/10/18 00:45:02;;;;;;;16.40;14.37;;;7.90;99.90;;;;;;6274107;22;19995;-82
2023/10/18 00:47:30;;;;;;;16.13;14.43;;;7.90;99.90;;;;;;6273765;22;20023;-83
2023/10/18 00:49:57;;;;;;;16.80;14.93;;;7.90;99.90;;;;;;6273584;22;20019;-84
2023/10/18 00:52:28;;;;;;;16.37;14.00;;;7.80;99.90;;;;;;6273625;22;20007;-84
2023/10/18 00:54:54;;;;;;;16.43;14.20;;;7.90;99.90;;;;;;6273631;22;19996;-84
2023/10/18 00:57:24;;;;;;;17.20;13.90;;;7.80;99.90;;;;;;6273242;22;20452;-85
2023/10/18 00:59:52;;;;;;;16.17;14.20;;;7.80;99.90;;;;;;6246241;22;20010;-86
2023/10/18 01:02:19;;;;;;;17.60;14.80;;;7.80;99.90;;;;;;6245897;22;20413;-83
2023/10/18 01:04:46;;;;;;;17.20;14.53;;;7.80;99.90;;;;;;6247140;22;20000;-84
2023/10/18 01:07:14;;;;;;;18.40;15.63;;;7.80;99.90;;;;;;6273807;22;20059;-85
2023/10/18 01:09:44;;;;;;;17.40;13.83;;;7.80;99.90;;;;;;6246591;22;20011;-88
2023/10/18 01:12:11;;;;;;;17.50;14.27;;;7.70;99.90;;;;;;6246903;22;20027;-87
2023/10/18 01:14:37;;;;;;;19.43;16.00;;;7.70;99.90;;;;;;6272856;22;20049;-88
2023/10/18 01:17:06;;;;;;;17.27;14.13;;;7.70;99.90;;;;;;6246234;22;19996;-88
2023/10/18 01:19:32;;;;;;;18.37;16.47;;;7.70;99.90;;;;;;6273476;22;20057;-87
2023/10/18 01:21:57;;;;;;;16.77;13.93;;;7.70;99.90;;;;;;6245274;22;20446;-85
2023/10/18 01:24:28;;;;;;;16.50;14.77;;;7.70;99.90;;;;;;6273283;22;20110;-91
2023/10/18 01:26:53;;;;;;;20.73;16.13;;;7.70;99.90;;;;;;6278219;22;20011;-88
2023/10/18 01:29:19;;;;;;;21.57;16.60;;;7.60;99.90;;;;;;6274657;22;20015;-83
2023/10/18 01:31:45;;;;;;;18.00;15.47;;;7.60;99.90;;;;;;6273555;22;20008;-86
2023/10/18 01:34:11;;;;;;;17.27;14.00;;;7.60;99.90;;;;;;6276376;22;20351;-84
2023/10/18 01:36:39;;;;;;;19.03;13.90;;;7.60;99.90;;;;;;6246108;22;20007;-84
2023/10/18 01:39:20;;;;;;;16.37;14.67;;;7.60;99.90;;;;;;6245717;22;20081;-91
2023/10/18 01:41:51;;;;;;;17.87;15.97;;;7.60;99.90;;;;;;6246379;22;20036;-86
2023/10/18 01:44:38;;;;;;;16.83;14.60;;;7.60;99.90;;;;;;6245806;22;20313;-88
2023/10/18 01:47:06;;;;;;;17.30;14.40;;;7.60;99.90;;;;;;6272029;22;20011;-84
2023/10/18 01:49:34;;;;;;;17.93;14.63;;;7.60;99.90;;;;;;6245794;22;20003;-86
2023/10/18 01:51:59;;;;;;;17.27;14.67;;;7.50;99.90;;;;;;6245622;22;20011;-85
2023/10/18 01:54:25;;;;;;;19.90;14.90;;;7.60;99.90;;;;;;6245631;22;20000;-84
2023/10/18 01:57:03;;;;;;;19.23;15.43;;;7.50;99.90;;;;;;6273121;22;20015;-84
2023/10/18 01:59:28;;;;;;;18.87;15.53;;;7.50;99.90;;;;;;6274455;22;20151;-88
2023/10/18 02:01:57;;;;;;;16.47;14.47;;;7.50;99.90;;;;;;6278536;22;20007;-86
2023/10/18 02:04:26;;;;;;;19.13;14.87;;;7.50;99.90;;;;;;6274047;22;20429;-87
2023/10/18 02:07:02;;;;;;;23.03;15.57;;;7.50;99.90;;;;;;6272855;22;20075;-83
2023/10/18 02:09:49;;;;;;;20.13;15.70;;;7.50;99.90;;;;;;6272644;22;20003;-85
2023/10/18 02:12:21;;;;;;;18.03;15.03;;;7.50;99.90;;;;;;6273303;22;20075;-84
2023/10/18 02:14:51;;;;;;;21.23;15.60;;;7.50;99.90;;;;;;6274841;22;19995;-86
2023/10/18 02:17:18;;;;;;;18.97;14.57;;;7.50;99.90;;;;;;6249769;22;20000;-84
2023/10/18 02:19:44;;;;;;;17.77;14.73;;;7.50;99.90;;;;;;6278909;22;20314;-84
2023/10/18 02:22:13;;;;;;;19.33;15.47;;;7.50;99.90;;;;;;6277157;22;20000;-85
2023/10/18 02:24:38;;;;;;;23.87;14.67;;;7.40;99.90;;;;;;6252617;22;20061;-86
2023/10/18 02:27:08;;;;;;;18.70;14.77;;;7.50;99.90;;;;;;6245753;22;20000;-86
2023/10/18 02:29:34;;;;;;;16.87;13.67;;;7.50;99.90;;;;;;6245068;22;20004;-83
2023/10/18 02:32:04;;;;;;;21.73;16.67;;;7.50;99.90;;;;;;6272537;22;20000;-84
2023/10/18 02:34:33;;;;;;;17.77;15.57;;;7.50;99.90;;;;;;6244409;22;20429;-84
2023/10/18 02:37:00;;;;;;;18.03;14.47;;;7.50;99.90;;;;;;6274456;22;20418;-85
2023/10/18 02:39:32;;;;;;;19.53;16.27;;;7.50;99.90;;;;;;6243395;22;20030;-84
2023/10/18 02:41:58;;;;;;;17.20;13.97;;;7.50;99.90;;;;;;6246322;22;20008;-86
2023/10/18 02:44:24;;;;;;;18.27;15.17;;;7.50;99.90;;;;;;6272533;22;20061;-85
2023/10/18 02:46:54;;;;;;;17.70;14.53;;;7.50;99.90;;;;;;6245887;22;20007;-84
2023/10/18 02:49:23;;;;;;;17.60;13.93;;;7.50;99.90;;;;;;6272258;22;20073;-83
2023/10/18 02:51:50;;;;;;;17.47;14.50;;;7.40;99.90;;;;;;6245818;22;20000;-84
2023/10/18 02:56:43;;;;;;;19.10;13.63;;;7.40;99.90;;;;;;6273154;22;20006;-82
2023/10/18 02:59:08;;;;;;;19.50;14.23;;;7.40;99.90;;;;;;6272387;22;20007;-81
2023/10/18 03:01:36;;;;;;;18.00;14.63;;;7.40;99.90;;;;;;6272256;22;20018;-83
2023/10/18 03:04:07;;;;;;;21.43;14.37;;;7.40;99.90;;;;;;6245657;22;20012;-84
2023/10/18 03:06:33;;;;;;;21.67;15.03;;;7.40;99.90;;;;;;6272320;22;20007;-82
2023/10/18 03:09:00;;;;;;;18.47;15.17;;;7.30;99.90;;;;;;6272206;22;20014;-83
2023/10/18 03:11:26;;;;;;;21.73;15.40;;;7.30;99.90;;;;;;6271939;22;20046;-82
2023/10/18 03:13:57;;;;;;;24.03;17.73;;;7.30;99.90;;;;;;6254013;22;20022;-87
2023/10/18 03:18:59;;;;;;;22.73;16.07;;;7.30;99.90;;;;;;6294508;22;20007;-84
2023/10/18 03:21:26;;;;;;;19.23;16.50;;;7.20;99.90;;;;;;6256101;22;20475;-83
2023/10/18 03:23:52;;;;;;;19.30;16.33;;;7.20;99.90;;;;;;6245364;22;20007;-83
2023/10/18 03:26:33;;;;;;;23.90;17.83;;;7.30;99.90;;;;;;6273589;22;20003;-86
2023/10/18 03:29:05;;;;;;;23.33;17.00;;;7.20;99.90;;;;;;6246665;22;20019;-83
2023/10/18 03:31:36;;;;;;;19.33;15.87;;;7.20;99.90;;;;;;6272513;22;20045;-85
2023/10/18 03:34:02;;;;;;;19.53;15.97;;;7.20;99.90;;;;;;6245284;22;20082;-84
2023/10/18 03:36:32;;;;;;;19.73;14.57;;;7.20;99.90;;;;;;6271810;22;20326;-85
2023/10/18 03:39:13;;;;;;;19.23;15.97;;;7.20;99.90;;;;;;6271836;22;20057;-83
2023/10/18 03:41:42;;;;;;;23.07;16.43;;;7.10;99.90;;;;;;6272231;22;20000;-83
2023/10/18 03:44:13;;;;;;;19.33;15.37;;;7.10;99.90;;;;;;6271812;22;20075;-82
2023/10/18 03:46:39;;;;;;;20.87;16.77;;;7.20;99.90;;;;;;6271839;22;20000;-82
2023/10/18 03:49:10;;;;;;;19.93;16.17;;;7.10;99.90;;;;;;6244602;22;20095;-82
2023/10/18 03:51:37;;;;;;;18.53;15.07;;;7.10;99.90;;;;;;6244783;22;19999;-83
2023/10/18 03:54:04;;;;;;;19.27;14.33;;;7.10;99.90;;;;;;6271880;22;20030;-84
2023/10/18 03:56:36;;;;;;;19.90;15.20;;;7.10;99.90;;;;;;6271732;22;20049;-84
2023/10/18 03:59:19;;;;;;;17.60;14.97;;;7.10;99.90;;;;;;6272025;22;20014;-83
2023/10/18 04:04:36;;;;;;;20.90;15.63;;;7.10;99.90;;;;;;6272156;22;20054;-83
2023/10/18 04:07:12;;;;;;;21.67;17.57;;;7.10;99.90;;;;;;6271656;22;20015;-81
2023/10/18 04:09:46;;;;;;;19.83;15.83;;;7.10;99.90;;;;;;6272373;22;20003;-82
2023/10/18 04:12:17;;;;;;;;;;;7.10;99.90;;;;;;6246314;22;20455;-83
2023/10/18 04:14:50;;;;;;;20.83;15.00;;;7.10;99.90;;;;;;6272318;22;19899;-85
2023/10/18 04:17:18;;;;;;;21.15;16.08;;;7.10;99.90;;;;;;6273116;22;20008;-81
2023/10/18 04:19:43;;;;;;;20.17;16.97;;;7.10;99.90;;;;;;6272215;22;20000;-84
2023/10/18 04:22:09;;;;;;;21.33;17.10;;;7.10;99.90;;;;;;6272116;22;20315;-82
2023/10/18 04:24:35;;;;;;;21.00;16.77;;;7.00;99.90;;;;;;6274798;22;20071;-85
2023/10/18 04:27:04;;;;;;;24.57;18.30;;;7.00;99.90;;;;;;6251367;22;20008;-88
2023/10/18 04:29:33;;;;;;;23.30;16.73;;;7.00;99.90;;;;;;6243184;22;20030;-82
2023/10/18 04:32:03;;;;;;;22.63;15.17;;;7.00;99.90;;;;;;6270141;22;19996;-83
2023/10/18 04:34:29;;;;;;;18.37;14.77;;;7.00;99.90;;;;;;6270916;22;20148;-85
2023/10/18 04:36:55;;;;;;;19.37;15.87;;;7.10;99.90;;;;;;6272135;22;20426;-84
2023/10/18 04:39:21;;;;;;;20.57;15.33;;;7.00;99.90;;;;;;6271485;22;20495;-82
2023/10/18 04:41:47;;;;;;;17.17;14.17;;;7.10;99.90;;;;;;6271812;22;20425;-84
2023/10/18 04:44:18;;;;;;;20.30;16.00;;;7.10;99.90;;;;;;6244632;22;20003;-82
2023/10/18 04:46:47;;;;;;;19.80;15.53;;;7.10;99.90;;;;;;6272034;22;20367;-88
2023/10/18 04:54:08;;;;;;;18.73;15.47;;;7.10;99.90;;;;;;6273331;22;20050;-84
2023/10/18 04:56:37;;;;;;;22.00;15.27;;;7.00;99.90;;;;;;6272420;22;20069;-84
2023/10/18 05:04:34;;;;;;;21.03;14.73;;;7.00;99.90;;;;;;6282412;22;20014;-84
2023/10/18 05:07:14;;;;;;;18.50;14.63;;;7.00;99.90;;;;;;6245553;22;20000;-80
2023/10/18 05:12:28;;;;;;;19.73;15.27;;;7.00;99.90;;;;;;6273636;22;20054;-82
2023/10/18 05:17:21;;;;;;;21.23;15.10;;;7.00;99.90;;;;;;6273662;22;20008;-85
2023/10/18 05:19:49;;;;;;;18.03;14.27;;;7.00;99.90;;;;;;6245652;22;20149;-81
2023/10/18 05:22:24;;;;;;;19.10;14.50;;;7.00;99.90;;;;;;6246376;22;19999;-81
2023/10/18 05:27:59;;;;;;;20.17;14.90;;;7.00;99.90;;;;;;6274167;22;20047;-83
2023/10/18 05:33:47;;;;;;;18.77;15.27;;;6.90;99.90;;;;;;6273368;22;20091;-80
2023/10/18 05:38:48;;;;;;;19.63;15.07;;;6.90;99.90;;;;;;6277360;22;20046;-83
2023/10/18 05:43:59;;;;;;;24.30;16.30;;;6.90;99.90;;;;;;6284629;22;20463;-82
2023/10/18 05:46:31;;;;;;;18.03;15.70;;;6.90;99.90;;;;;;6273424;22;20003;-82
2023/10/18 05:48:57;;;;;;;17.90;14.33;;;6.90;99.90;;;;;;6273344;22;20371;-83
2023/10/18 05:51:26;;;;;;;18.87;13.73;;;6.90;99.90;;;;;;6273117;22;20087;-84
2023/10/18 05:54:04;;;;;;;17.27;13.53;;;6.90;99.90;;;;;;6246461;22;20441;-81
2023/10/18 05:56:33;;;;;;;21.33;15.40;;;6.90;99.90;;;;;;6273060;22;20475;-80
2023/10/18 06:01:45;;;;;;;18.87;14.90;;;6.90;99.90;;;;;;6273097;22;20015;-84
2023/10/18 06:04:13;;;;;;;21.90;14.50;;;6.90;99.90;;;;;;6272680;22;20004;-82
2023/10/18 06:06:39;;;;;;;19.77;14.47;;;6.90;99.90;;;;;;6273463;22;20374;-82
2023/10/18 06:09:11;;;;;;;21.17;14.53;;;6.90;99.90;;;;;;6273256;22;20007;-84
2023/10/18 06:11:37;;;;;;;21.37;15.07;;;7.00;99.90;;;;;;6273559;22;20325;-83
2023/10/18 06:14:08;;;;;;;18.70;15.60;;;6.90;99.90;;;;;;6247355;22;20007;-85
2023/10/18 06:16:34;;;;;;;18.73;14.53;;;6.90;99.90;;;;;;6273675;22;20074;-83
2023/10/18 06:19:03;;;;;;;17.60;14.40;;;6.90;99.90;;;;;;6275575;22;20027;-84
2023/10/18 06:21:28;;;;;;;17.93;14.57;;;6.90;99.90;;;;;;6275289;22;20027;-83
2023/10/18 06:23:57;;;;;;;22.17;16.00;;;6.90;99.90;;;;;;6276793;22;20054;-88
2023/10/18 06:26:28;;;;;;;19.50;15.77;;;6.90;99.90;;;;;;6274141;22;20023;-86
2023/10/18 06:29:01;;;;;;;21.10;15.13;;;6.90;99.90;;;;;;6273772;22;20010;-92
2023/10/18 06:31:30;;;;;;;24.40;15.67;;;6.90;99.90;;;;;;6247315;22;20092;-90
2023/10/18 06:33:57;;;;;;;19.10;15.10;;;6.90;99.90;;;;;;6273349;22;20000;-74
2023/10/18 06:36:24;;;;;;;21.60;16.63;;;6.90;99.90;;;;;;6272515;22;20426;-74
2023/10/18 06:38:51;;;;;;;20.03;16.00;;;6.90;99.90;;;;;;6272176;22;20020;-74
2023/10/18 06:41:20;;;;;;;21.10;15.93;;;6.90;99.90;;;;;;6272353;22;20000;-74
2023/10/18 06:43:47;;;;;;;21.27;16.27;;;6.90;99.90;;;;;;6272454;22;20004;-74
2023/10/18 06:46:22;;;;;;;18.93;15.70;;;6.90;99.90;;;;;;6272480;22;20045;-74
2023/10/18 06:48:50;;;;;;;19.10;16.23;;;6.90;99.90;;;;;;6272413;22;20083;-74
2023/10/18 06:51:18;;;;;;;19.10;14.77;;;6.90;99.90;;;;;;6272461;22;20003;-74
2023/10/18 06:53:47;;;;;;;19.93;15.43;;;6.90;99.90;;;;;;6272585;22;20071;-73
2023/10/18 06:56:22;;;;;;;19.63;16.27;;;6.90;99.90;;;;;;6272531;22;19995;-73
2023/10/18 06:58:48;;;;;;;19.73;16.50;;;6.90;99.90;;;;;;6272329;22;20004;-73
2023/10/18 07:01:19;;;;;;;20.67;16.20;;;6.90;99.90;;;;;;6271749;22;20010;-73
2023/10/18 07:03:48;;;;;;;21.70;15.33;;;7.00;99.90;;;;;;6272246;22;20446;-73
2023/10/18 07:06:23;;;;;;;23.27;16.00;;;7.00;99.90;;;;;;6272093;22;20000;-73
2023/10/18 07:08:50;;;;;;;17.73;13.73;;;7.00;99.90;;;;;;6272359;22;20061;-73
2023/10/18 07:11:19;;;;;;;17.90;14.07;;;7.00;99.90;;;;;;6272020;22;20003;-73
2023/10/18 07:13:46;;;;;;;18.40;14.07;;;7.10;99.90;;;;;;6245060;22;20008;-74
2023/10/18 07:16:16;;;;;;;16.57;13.63;;;7.10;99.90;;;;;;6271505;22;20011;-73
2023/10/18 07:18:45;;;;;;;21.50;14.27;;;7.10;99.90;;;;;;6272316;22;20018;-74
2023/10/18 07:21:18;;;;;;;19.23;14.60;;;7.10;99.90;;;;;;6244923;22;20003;-73
2023/10/18 07:23:46;;;;;;;15.27;13.43;;;7.20;99.90;;;;;;6245202;22;20000;-74
2023/10/18 07:26:14;;;;;;;16.37;13.77;;;7.20;99.90;;;;;;6272116;22;20004;-73
2023/10/18 07:28:41;;;;;;;24.10;16.17;;;7.30;99.90;;;;;;6271675;22;20441;-74
2023/10/18 07:31:10;;;;;;;18.67;14.20;;;7.30;99.90;;;;;;6271228;22;20329;-73
2023/10/18 07:33:40;;;;;;;18.97;13.57;;;7.30;99.90;;;;;;6272219;22;20306;-73
2023/10/18 07:36:09;;;;;;;25.70;15.90;;;7.30;99.90;;;;;;6271865;22;20003;-74
2023/10/18 07:38:47;;;;;;;19.07;15.17;;;7.40;99.90;;;;;;6271834;22;20026;-73
2023/10/18 07:41:18;;;;;;;20.33;14.73;;;7.40;99.90;;;;;;6272240;22;20000;-73
2023/10/18 07:43:44;;;;;;;15.73;13.93;;;7.40;99.90;;;;;;6270866;22;20026;-73
2023/10/18 07:46:16;;;;;;;17.60;13.03;;;7.50;99.90;;;;;;6271394;22;20000;-74
2023/10/18 07:48:46;;;;;;;14.77;13.07;;;7.50;99.90;;;;;;6244597;22;20535;-73
2023/10/18 07:51:26;;;;;;;17.07;14.50;;;7.50;99.90;;;;;;6271911;22;19999;-73
2023/10/18 07:53:53;;;;;;;15.97;12.87;;;7.60;99.90;;;;;;6272574;22;20004;-74
2023/10/18 07:56:29;;;;;;;17.10;14.17;;;7.70;99.90;;;;;;6272115;22;19996;-73
2023/10/18 07:59:17;;;;;;;16.40;12.60;;;7.70;99.90;;;;;;6272077;22;20000;-73
2023/10/18 08:02:27;;;;;;;15.97;13.73;;;7.70;99.90;;;;;;6271055;22;20011;-73
2023/10/18 08:04:29;;;;;;;18.00;13.43;;;7.80;99.90;;;;;;6250103;22;20075;-74
2023/10/18 08:06:56;;;;;;;15.93;12.73;;;7.80;99.90;;;;;;6272114;22;20399;-73
2023/10/18 08:09:28;;;;;;;15.80;12.50;;;7.80;99.90;;;;;;6271544;22;20011;-74
2023/10/18 08:11:54;;;;;;;15.63;12.83;;;7.90;99.90;;;;;;6271764;22;20027;-74
2023/10/18 08:14:24;;;;;;;17.77;13.13;;;7.90;99.90;;;;;;6270241;22;20004;-73
2023/10/18 08:16:56;;;;;;;20.20;13.77;;;8.00;99.90;;;;;;6271381;22;20330;-73
2023/10/18 08:19:23;;;;;;;15.53;13.03;;;8.00;99.90;;;;;;6271026;22;20011;-73
2023/10/18 08:24:27;;;;;;;13.60;12.10;;;8.10;99.90;;;;;;6281485;22;20010;-73
2023/10/18 08:26:59;;;;;;;14.70;12.53;;;8.20;99.90;;;;;;6270747;22;20003;-73
2023/10/18 08:29:27;;;;;;;16.03;12.77;;;8.20;99.90;;;;;;6270017;22;20069;-73
2023/10/18 08:31:55;;;;;;;15.63;12.90;;;8.30;99.90;;;;;;6271301;22;20024;-73
2023/10/18 08:34:23;;;;;;;13.67;12.27;;;8.30;99.90;;;;;;6270676;22;20057;-73
2023/10/18 08:37:01;;;;;;;17.50;11.77;;;8.40;99.90;;;;;;6270923;22;20083;-73
2023/10/18 08:39:26;;;;;;;16.77;12.43;;;8.40;99.90;;;;;;6270389;22;20095;-73
2023/10/18 08:42:11;;;;;;;18.23;13.27;;;8.50;99.90;;;;;;6272072;22;20027;-73
2023/10/18 08:44:38;;;;;;;12.70;11.00;;;8.60;99.90;;;;;;6245359;22;20429;-73
2023/10/18 08:49:44;;;;;;;12.40;11.10;;;8.70;99.90;;;;;;6272938;22;20008;-73
2023/10/18 08:52:10;;;;;;;15.67;12.03;;;8.70;99.90;;;;;;6272853;22;19996;-73
2023/10/18 08:54:42;;;;;;;13.97;11.63;;;8.80;99.90;;;;;;6272695;22;20008;-73
2023/10/18 08:57:09;;;;;;;15.87;12.50;;;8.90;99.90;;;;;;6245214;22;20000;-73
2023/10/18 08:59:42;;;;;;;14.93;11.13;;;9.00;99.90;;;;;;6272886;22;20003;-73
2023/10/18 09:02:17;;;;;;;13.88;10.75;;;9.10;99.90;;;;;;6272809;22;20032;-73
2023/10/18 09:04:48;;;;;;;15.03;12.37;;;9.20;99.90;;;;;;6272491;22;20015;-73
2023/10/18 09:07:22;;;;;;;12.57;11.27;;;9.30;99.90;;;;;;6272446;22;20004;-72
2023/10/18 09:09:55;;;;;;;12.93;10.90;;;9.30;99.90;;;;;;6272815;22;20126;-73
2023/10/18 09:12:33;;;;;;;12.90;11.27;;;9.40;99.90;;;;;;6244836;22;20429;-73
2023/10/18 09:15:26;;;;;;;11.03;9.93;;;9.50;99.90;;;;;;6272982;22;20374;-73
2023/10/18 09:17:46;;;;;;;12.77;9.87;;;9.60;99.90;;;;;;6272377;22;20032;-73
2023/10/18 09:20:15;;;;;;;11.33;9.70;;;9.70;99.90;;;;;;6272599;22;20425;-73
2023/10/18 09:22:45;;;;;;;11.90;10.10;;;9.70;99.90;;;;;;6272470;22;20000;-73
2023/10/18 09:25:12;;;;;;;14.67;9.97;;;9.80;99.90;;;;;;6272538;22;19996;-73
2023/10/18 09:27:38;;;;;;;11.57;9.97;;;9.90;99.90;;;;;;6271666;22;20506;-73
2023/10/18 09:30:04;;;;;;;10.63;9.60;;;10.00;99.90;;;;;;6272823;22;20049;-73
2023/10/18 09:32:33;;;;;;;10.93;9.73;;;10.00;99.90;;;;;;6272305;22;20010;-73
2023/10/18 09:35:07;;;;;;;10.93;9.67;;;10.10;99.90;;;;;;6272864;22;19996;-73
2023/10/18 09:37:35;;;;;;;10.63;9.35;;;10.10;99.90;;;;;;6272045;22;20548;-72
2023/10/18 09:40:03;;;;;;;11.73;8.97;;;10.20;99.90;;;;;;6273108;22;20006;-73
2023/10/18 09:42:29;;;;;;;9.00;7.93;;;10.20;99.90;;;;;;6271694;22;19996;-73
2023/10/18 09:44:54;;;;;;;13.40;10.88;;;10.20;99.90;;;;;;6273031;22;20049;-73
2023/10/18 09:47:25;;;;;;;9.90;8.93;;;10.20;99.90;;;;;;6272087;22;20321;-73
2023/10/18 09:49:54;;;;;;;13.55;9.93;;;10.20;99.90;;;;;;6272628;22;20069;-73
2023/10/18 09:52:24;;;;;;;11.05;9.05;;;10.20;99.90;;;;;;6271964;22;19996;-73
2023/10/18 09:54:59;;;;;;;10.23;8.10;;;10.30;99.90;;;;;;6271839;22;20006;-73
2023/10/18 09:57:27;;;;;;;13.40;8.50;;;10.30;99.90;;;;;;6271724;22;20003;-73
2023/10/18 09:59:56;;;;;;;11.07;8.63;;;10.30;99.90;;;;;;6272264;22;20003;-73
2023/10/18 10:02:24;;;;;;;10.82;9.52;;;10.40;99.90;;;;;;6271955;22;20114;-73
2023/10/18 10:04:54;;;;;;;8.57;7.63;;;10.40;99.90;;;;;;6272239;22;20477;-73
2023/10/18 10:07:39;;;;;;;9.60;8.70;;;10.50;99.90;;;;;;6271907;22;20007;-73
2023/10/18 10:10:08;;;;;;;10.27;8.73;;;10.60;99.90;;;;;;6271512;22;20057;-73
2023/10/18 10:12:35;;;;;;;10.35;8.48;;;10.60;99.90;;;;;;6271982;22;20461;-73
2023/10/18 10:15:02;;;;;;;9.93;8.05;;;10.70;99.90;;;;;;6244953;22;20122;-73
2023/10/18 10:17:30;;;;;;;8.93;7.97;;;10.70;99.90;;;;;;6244599;22;20004;-73
2023/10/18 10:20:10;;;;;;;12.52;7.80;;;10.80;99.90;;;;;;6272144;22;20000;-73
2023/10/18 10:22:41;;;;;;;11.30;8.27;;;10.90;99.90;;;;;;6272004;22;20070;-73
2023/10/18 10:25:11;;;;;;;11.07;8.48;;;11.00;99.90;;;;;;6271691;22;20329;-73
2023/10/18 10:30:19;;;;;;;10.95;8.25;;;11.10;99.70;;;;;;6272696;22;20413;-72
2023/10/18 10:32:46;;;;;;;10.30;7.00;;;11.20;99.60;;;;;;6271689;22;20000;-73
2023/10/18 10:35:16;;;;;;;8.15;7.25;;;11.30;99.50;;;;;;6271751;22;20007;-73
2023/10/18 10:37:52;;;;;;;11.48;7.80;;;11.40;99.20;;;;;;6271571;22;20082;-73
2023/10/18 10:43:03;;;;;;;8.40;7.43;;;11.50;98.90;;;;;;6272141;22;20333;-73
2023/10/18 10:48:17;;;;;;;10.35;7.75;;;11.70;98.80;;;;;;6271618;22;20345;-74
2023/10/18 10:50:57;;;;;;;9.88;7.60;;;11.80;98.70;;;;;;6271653;22;19996;-73
2023/10/18 10:53:35;;;;;;;8.32;7.03;;;11.90;98.90;;;;;;6270845;22;20091;-73
2023/10/18 10:56:17;;;;;;;9.90;7.75;;;12.00;98.50;;;;;;6272079;22;20004;-73
2023/10/18 10:58:54;;;;;;;10.77;7.07;;;12.00;98.40;;;;;;6244277;22;20085;-73
2023/10/18 11:01:31;;;;;;;8.10;7.20;;;12.10;98.00;;;;;;6271367;22;20094;-73
2023/10/18 11:03:59;;;;;;;10.25;7.38;;;12.10;97.70;;;;;;6271655;22;20014;-73
2023/10/18 11:06:32;;;;;;;8.27;7.20;;;12.20;97.60;;;;;;6271004;22;20003;-72
2023/10/18 11:08:58;;;;;;;8.48;7.00;;;12.20;97.50;;;;;;6271245;22;20039;-72
2023/10/18 11:11:26;;;;;;;9.43;6.93;;;12.30;97.50;;;;;;6271203;22;20474;-73
2023/10/18 11:13:52;;;;;;;9.25;7.50;;;12.30;97.40;;;;;;6271682;22;20000;-73
2023/10/18 11:16:20;;;;;;;11.90;7.40;;;12.30;97.30;;;;;;6270743;22;20000;-73
2023/10/18 11:18:49;;;;;;;8.45;6.88;;;12.30;97.00;;;;;;6271607;22;20325;-72
2023/10/18 11:21:19;;;;;;;9.50;8.05;;;12.40;97.10;;;;;;6271210;22;20004;-73
2023/10/18 11:23:57;;;;;;;8.55;7.40;;;12.40;97.10;;;;;;6270861;22;20019;-73
2023/10/18 11:26:26;;;;;;;9.80;7.07;;;12.40;96.70;;;;;;6271321;22;20333;-73
2023/10/18 11:29:05;;;;;;;7.72;6.88;;;12.40;96.70;;;;;;6271585;22;20000;-73
2023/10/18 11:31:31;;;;;;;9.70;7.22;;;12.50;96.60;;;;;;6271156;22;20000;-74
2023/10/18 11:34:21;;;;;;;7.13;6.43;;;12.50;96.60;;;;;;6271312;22;19996;-74
2023/10/18 11:36:49;;;;;;;7.63;6.50;;;12.50;96.70;;;;;;6270260;22;20053;-72
2023/10/18 11:41:42;;;;;;;9.13;7.70;;;12.50;96.30;;;;;;6271161;22;20340;-72
2023/10/18 11:44:16;;;;;;;8.90;7.03;;;12.50;96.40;;;;;;6271025;22;20007;-73
2023/10/18 11:46:50;;;;;;;7.75;6.93;;;12.60;96.30;;;;;;6271060;22;20074;-72
2023/10/18 11:49:19;;;;;;;;;;;12.70;96.40;;;;;;6271332;22;19996;-72
2023/10/18 11:51:48;;;;;;;8.98;6.50;;;12.70;96.30;;;;;;6270454;22;20642;-73
2023/10/18 11:54:31;;;;;;;14.50;8.18;;;12.70;96.30;;;;;;6271019;22;20067;-73
2023/10/18 11:56:57;;;;;;;9.65;8.20;;;12.80;96.30;;;;;;6271242;22;20000;-73
2023/10/18 11:59:24;;;;;;;10.40;7.28;;;12.80;96.20;;;;;;6243582;22;20018;-72
2023/10/18 12:01:58;;;;;;;8.32;7.53;;;12.90;96.20;;;;;;6271087;22;20003;-73
2023/10/18 12:04:37;;;;;;;7.78;6.70;;;12.90;95.70;;;;;;6243425;22;20014;-73
2023/10/18 12:07:03;;;;;;;9.98;7.32;;;12.90;95.60;;;;;;6270600;22;20004;-73
2023/10/18 12:09:42;;;;;;;7.38;6.68;;;12.90;95.70;;;;;;6243548;22;20496;-73
2023/10/18 12:12:15;;;;;;;8.43;7.63;;;13.00;95.90;;;;;;6271295;22;20006;-73
2023/10/18 12:14:41;;;;;;;9.52;7.45;;;13.00;95.80;;;;;;6270980;22;20004;-73
2023/10/18 12:17:07;;;;;;;10.43;7.43;;;13.10;95.70;;;;;;6272348;22;20069;-73
2023/10/18 12:19:34;;;;;;;8.35;6.60;;;13.10;95.80;;;;;;6272631;22;20011;-73
2023/10/18 12:22:01;;;;;;;8.90;6.90;;;13.20;95.80;;;;;;6272889;22;20108;-72
2023/10/18 12:24:33;;;;;;;10.23;7.50;;;13.30;95.70;;;;;;6245374;22;20004;-73
2023/10/18 12:29:52;;;;;;;7.50;6.80;;;13.30;95.50;;;;;;6271015;22;20010;-73
2023/10/18 12:32:26;;;;;;;7.07;6.38;;;13.40;95.40;;;;;;6268823;22;20401;-72
2023/10/18 12:34:57;;;;;;;7.35;6.65;;;13.40;95.40;;;;;;6269268;22;20083;-72
2023/10/18 12:37:24;;;;;;;9.45;6.53;;;13.40;95.60;;;;;;6270832;22;20085;-71
2023/10/18 12:39:50;;;;;;;9.13;6.70;;;13.40;95.60;;;;;;6273619;22;20004;-72
2023/10/18 12:42:19;;;;;;;9.38;7.85;;;13.40;95.40;;;;;;6273172;22;20007;-72
2023/10/18 12:44:46;;;;;;;8.73;6.75;;;13.40;95.30;;;;;;6272956;22;20034;-73
2023/10/18 12:47:13;;;;;;;8.07;6.25;;;13.40;95.30;;;;;;6273134;22;20007;-72
2023/10/18 12:49:44;;;;;;;7.90;5.75;;;13.50;95.40;;;;;;6272467;22;20008;-73
2023/10/18 12:52:41;;;;;;;8.98;6.05;;;13.50;95.40;;;;;;6273005;22;20332;-73
2023/10/18 12:54:59;;;;;;;7.32;5.75;;;13.50;95.50;;;;;;6273057;22;20382;-72
2023/10/18 12:57:32;;;;;;;7.95;7.15;;;13.60;95.30;;;;;;6272649;22;20085;-73
2023/10/18 13:05:11;;;;;;;7.90;5.65;;;13.70;95.30;;;;;;6272134;22;20083;-72
2023/10/18 13:07:37;;;;;;;10.55;7.03;;;13.60;95.40;;;;;;6272662;22;20053;-72
2023/10/18 13:10:11;;;;;;;7.00;6.30;;;13.70;94.90;;;;;;6245581;22;20008;-72
2023/10/18 13:12:53;;;;;;;6.90;6.20;;;13.70;94.90;;;;;;6273184;22;20030;-72
2023/10/18 13:15:22;;;;;;;8.10;5.82;;;13.60;94.80;;;;;;6272950;22;20000;-72
2023/10/18 13:17:48;;;;;;;7.65;6.80;;;13.60;94.90;;;;;;6272545;22;20000;-72
2023/10/18 13:20:24;;;;;;;8.73;6.35;;;13.60;94.90;;;;;;6245612;22;20000;-73
2023/10/18 13:22:55;;;;;;;7.72;5.40;;;13.70;95.10;;;;;;6272609;22;20002;-72
2023/10/18 13:25:37;;;;;;;8.52;7.72;;;13.70;95.00;;;;;;6272526;22;20329;-72
2023/10/18 13:28:06;;;;;;;6.45;5.85;;;13.80;95.00;;;;;;6272490;22;20071;-74
2023/10/18 13:30:32;;;;;;;10.15;6.28;;;13.80;95.00;;;;;;6272094;22;20463;-73
2023/10/18 13:33:01;;;;;;;6.93;6.20;;;13.80;95.00;;;;;;6271702;22;20082;-73
2023/10/18 13:35:34;;;;;;;9.88;6.82;;;13.90;95.10;;;;;;6271918;22;20053;-72
2023/10/18 13:37:59;;;;;;;9.10;6.28;;;13.90;95.30;;;;;;6272561;22;20039;-72
2023/10/18 13:40:27;;;;;;;7.20;6.28;;;13.90;95.10;;;;;;6271828;22;20007;-72
2023/10/18 13:42:54;;;;;;;7.03;6.32;;;14.00;95.00;;;;;;6272263;22;20020;-72
2023/10/18 13:45:26;;;;;;;8.45;6.15;;;14.00;94.90;;;;;;6271966;22;20045;-72
2023/10/18 13:47:51;;;;;;;8.35;6.40;;;14.00;94.70;;;;;;6272077;22;20029;-73
2023/10/18 13:50:17;;;;;;;9.63;6.18;;;14.00;94.80;;;;;;6272145;22;20000;-72
2023/10/18 13:52:46;;;;;;;9.75;6.45;;;14.00;94.60;;;;;;6272292;22;20008;-72
2023/10/18 13:55:14;;;;;;;6.47;5.85;;;14.00;94.40;;;;;;6271926;22;20008;-72
2023/10/18 13:57:40;;;;;;;7.97;5.57;;;13.90;94.60;;;;;;6272169;22;20422;-73